Flight Track Log - Related Links

Times and Time Zones

All times are in EDT time to prevent confusion due to time zone crossing. See the EZY2177 flight status page for this flight to view local times or setup timezone preferences in your user account.

Time Position Orientation Groundspeed Altitude Reporting Facility
EDT Latitude Longitude Course Direction KTS MPH feet Rate Location/Type
Wed 12:17:00 PM 51.8593 0.6639 91° East  Level Estimated
Wed 12:18:00 PM 51.8570 0.7786 92° East  Level Estimated
Wed 12:19:00 PM 51.8546 0.8932 92° East  Level Estimated
Wed 12:20:00 PM 51.8521 1.0078 92° East  Level Estimated
Wed 12:21:00 PM 51.8495 1.1224 92° East  Level Estimated
Wed 12:22:00 PM 51.8468 1.2370 92° East  Level Estimated
Wed 12:23:00 PM 51.8440 1.3516 92° East  Level Estimated
Wed 12:24:00 PM 51.8410 1.4662 92° East  Level Estimated
Wed 12:25:00 PM 51.8380 1.5807 92° East  Level Estimated
Wed 12:26:00 PM 51.8348 1.6953 93° East  Level Estimated
Wed 12:27:00 PM 51.8316 1.8098 93° East  Level Estimated
Wed 12:28:00 PM 51.8282 1.9243 93° East  Level Estimated
Wed 12:29:00 PM 51.8246 2.0404 93° East  Level Estimated
Wed 12:30:00 PM 51.8210 2.1565 93° East  Level Estimated
Wed 12:31:00 PM 51.8172 2.2726 93° East  Level Estimated
Wed 12:32:00 PM 51.8133 2.3887 93° East  Level Estimated
Wed 12:33:00 PM 51.8090 2.5139 93° East  Level Estimated
Wed 12:34:00 PM 51.8045 2.6390 93° East  Level Estimated
Wed 12:35:00 PM 51.7999 2.7641 93° East  Level Estimated
Wed 12:36:00 PM 51.7952 2.8891 93° East  Level Estimated
Wed 12:37:00 PM 51.7904 3.0141 94° East  Level Estimated
Wed 12:38:00 PM 51.7854 3.1391 94° East  Level Estimated
Wed 12:39:00 PM 51.7802 3.2641 94° East  Level Estimated
Wed 12:40:00 PM 51.7750 3.3891 94° East  Level Estimated
Wed 12:41:00 PM 51.7696 3.5140 94° East  Level Estimated
Wed 12:42:00 PM 51.7641 3.6389 94° East  Level Estimated
Wed 12:43:00 PM 51.7584 3.7637 94° East  Level Estimated
Wed 12:44:00 PM 51.7527 3.8886 94° East  Level Estimated
Wed 12:45:00 PM 51.7467 4.0133 94° East  Level Estimated
Wed 12:46:00 PM 51.7407 4.1381 94° East  Level Estimated
Wed 12:47:00 PM 51.7345 4.2628 95° East  Level Estimated
Wed 12:48:00 PM 51.7282 4.3875 95° East  Level Estimated
Wed 12:49:00 PM 51.7218 4.5122 95° East  Level Estimated
Wed 12:50:00 PM 51.7152 4.6368 95° East  Level Estimated
Wed 12:51:00 PM 51.7085 4.7614 95° East  Level Estimated
Wed 12:52:00 PM 51.7017 4.8859 95° East  Level Estimated
Wed 12:53:00 PM 51.6945 5.0144 95° East  Level Estimated
Wed 12:54:00 PM 51.6871 5.1429 95° East  Level Estimated
Wed 12:55:00 PM 51.6796 5.2714 95° East  Level Estimated
Wed 12:56:00 PM 51.6720 5.3998 95° East  Level Estimated
Wed 12:57:00 PM 51.6643 5.5281 96° East  Level Estimated
Wed 12:58:00 PM 51.6564 5.6564 96° East  Level Estimated
Wed 12:59:00 PM 51.6483 5.7847 96° East  Level Estimated
Wed 01:00:00 PM 51.6402 5.9129 96° East  Level Estimated
Wed 01:01:00 PM 51.6319 6.0411 96° East  Level Estimated
Wed 01:02:00 PM 51.6234 6.1692 96° East  Level Estimated
Wed 01:03:00 PM 51.6148 6.2973 96° East  Level Estimated
Wed 01:04:00 PM 51.6061 6.4253 96° East  Level Estimated
Wed 01:05:00 PM 51.5972 6.5533 96° East  Level Estimated
Wed 01:06:00 PM 51.5882 6.6812 96° East  Level Estimated
Wed 01:07:00 PM 51.5791 6.8091 97° East  Level Estimated
Wed 01:08:00 PM 51.5698 6.9369 97° East  Level Estimated
Wed 01:09:00 PM 51.5603 7.0647 97° East  Level Estimated
Wed 01:10:00 PM 51.5508 7.1924 97° East  Level Estimated
Wed 01:11:00 PM 51.5411 7.3201 97° East  Level Estimated
Wed 01:12:00 PM 51.5312 7.4477 97° East  Level Estimated
Wed 01:13:00 PM 51.5212 7.5752 97° East  Level Estimated
Wed 01:14:00 PM 51.5183 7.6122 97° East  Level Estimated
Wed 01:15:00 PM 51.5183 7.6122 17° North  Level Estimated
Wed 01:16:00 PM 51.5183 7.6122 17° North  Level Estimated
Wed 01:17:00 PM 51.5183 7.6122 17° North  Level Estimated
Wed 01:18:00 PM 51.5183 7.6122 17° North  Level Estimated
Wed 01:19:00 PM 51.5183 7.6122 17° North  Level Estimated
Wed 01:20:00 PM 51.5183 7.6122 17° North  Level Estimated
Wed 01:21:00 PM 51.5183 7.6122 17° North  Level Estimated
Wed 01:22:00 PM 51.5183 7.6122 17° North  Level Estimated
Wed 01:23:00 PM 51.5183 7.6122 17° North  Level Estimated
Wed 01:24:00 PM 51.5183 7.6122 17° North  Level Estimated
Wed 01:25:00 PM 51.5183 7.6122 17° North  Level Estimated
Wed 01:26:00 PM 51.5183 7.6122 17° North  Level Estimated

Login

Don't have an account? Register now (free) for customized features, flight alerts, and more!